sensor_id;sensor_type;location;lat;lon;timestamp;P1;durP1;ratioP1;P2;durP2;ratioP2
14526;SDS011;7350;51.208;4.238;2023-03-17T00:00:23;3.00;;;1.50;;
14526;SDS011;7350;51.208;4.238;2023-03-17T00:02:51;2.15;;;1.15;;
14526;SDS011;7350;51.208;4.238;2023-03-17T00:05:20;2.10;;;1.50;;
14526;SDS011;7350;51.208;4.238;2023-03-17T00:07:49;1.70;;;1.60;;
14526;SDS011;7350;51.208;4.238;2023-03-17T00:10:18;1.88;;;1.63;;
14526;SDS011;7350;51.208;4.238;2023-03-17T00:12:49;1.48;;;1.38;;
14526;SDS011;7350;51.208;4.238;2023-03-17T00:15:19;1.48;;;1.38;;
14526;SDS011;7350;51.208;4.238;2023-03-17T00:17:47;1.65;;;1.48;;
14526;SDS011;7350;51.208;4.238;2023-03-17T00:20:19;1.40;;;1.30;;
14526;SDS011;7350;51.208;4.238;2023-03-17T00:22:49;1.75;;;1.55;;
14526;SDS011;7350;51.208;4.238;2023-03-17T00:25:21;1.70;;;1.27;;
14526;SDS011;7350;51.208;4.238;2023-03-17T00:27:51;1.67;;;1.58;;
14526;SDS011;7350;51.208;4.238;2023-03-17T00:30:19;1.58;;;1.48;;
14526;SDS011;7350;51.208;4.238;2023-03-17T00:32:47;1.85;;;1.50;;
14526;SDS011;7350;51.208;4.238;2023-03-17T00:35:18;1.98;;;1.30;;
14526;SDS011;7350;51.208;4.238;2023-03-17T00:37:47;1.50;;;1.40;;
14526;SDS011;7350;51.208;4.238;2023-03-17T00:40:17;2.13;;;1.27;;
14526;SDS011;7350;51.208;4.238;2023-03-17T00:42:46;2.08;;;1.23;;
14526;SDS011;7350;51.208;4.238;2023-03-17T00:45:14;1.67;;;1.30;;
14526;SDS011;7350;51.208;4.238;2023-03-17T00:47:42;1.55;;;1.20;;
14526;SDS011;7350;51.208;4.238;2023-03-17T00:50:11;1.88;;;1.50;;
14526;SDS011;7350;51.208;4.238;2023-03-17T00:52:41;1.30;;;1.20;;
14526;SDS011;7350;51.208;4.238;2023-03-17T00:55:08;1.70;;;1.42;;
14526;SDS011;7350;51.208;4.238;2023-03-17T00:57:37;1.30;;;1.20;;
14526;SDS011;7350;51.208;4.238;2023-03-17T01:00:05;1.73;;;1.10;;
14526;SDS011;7350;51.208;4.238;2023-03-17T01:02:42;1.70;;;1.35;;
14526;SDS011;7350;51.208;4.238;2023-03-17T01:05:09;1.83;;;1.30;;
14526;SDS011;7350;51.208;4.238;2023-03-17T01:07:37;1.90;;;1.48;;
14526;SDS011;7350;51.208;4.238;2023-03-17T01:10:10;2.75;;;1.50;;
14526;SDS011;7350;51.208;4.238;2023-03-17T01:12:39;2.67;;;1.67;;
14526;SDS011;7350;51.208;4.238;2023-03-17T01:15:07;1.52;;;1.42;;
14526;SDS011;7350;51.208;4.238;2023-03-17T01:17:35;1.20;;;1.10;;
14526;SDS011;7350;51.208;4.238;2023-03-17T01:20:04;1.92;;;1.40;;
14526;SDS011;7350;51.208;4.238;2023-03-17T01:22:32;2.05;;;1.30;;
14526;SDS011;7350;51.208;4.238;2023-03-17T01:24:59;1.10;;;1.00;;
14526;SDS011;7350;51.208;4.238;2023-03-17T01:27:27;1.48;;;1.23;;
14526;SDS011;7350;51.208;4.238;2023-03-17T01:29:59;1.83;;;1.45;;
14526;SDS011;7350;51.208;4.238;2023-03-17T01:32:26;2.83;;;1.58;;
14526;SDS011;7350;51.208;4.238;2023-03-17T01:34:53;1.48;;;1.20;;
14526;SDS011;7350;51.208;4.238;2023-03-17T01:37:20;1.80;;;1.20;;
14526;SDS011;7350;51.208;4.238;2023-03-17T01:39:47;1.55;;;1.35;;
14526;SDS011;7350;51.208;4.238;2023-03-17T01:42:15;1.27;;;1.02;;
14526;SDS011;7350;51.208;4.238;2023-03-17T01:44:56;1.20;;;1.10;;
14526;SDS011;7350;51.208;4.238;2023-03-17T01:47:29;1.63;;;1.38;;
14526;SDS011;7350;51.208;4.238;2023-03-17T01:49:57;2.30;;;1.40;;
14526;SDS011;7350;51.208;4.238;2023-03-17T01:52:26;1.33;;;1.10;;
14526;SDS011;7350;51.208;4.238;2023-03-17T01:54:55;2.28;;;1.40;;
14526;SDS011;7350;51.208;4.238;2023-03-17T01:57:25;1.40;;;1.30;;
14526;SDS011;7350;51.208;4.238;2023-03-17T01:59:57;1.02;;;0.95;;
14526;SDS011;7350;51.208;4.238;2023-03-17T02:02:31;1.60;;;1.20;;
14526;SDS011;7350;51.208;4.238;2023-03-17T02:05:02;1.58;;;1.15;;
14526;SDS011;7350;51.208;4.238;2023-03-17T02:07:30;1.25;;;1.10;;
14526;SDS011;7350;51.208;4.238;2023-03-17T02:09:58;1.42;;;1.17;;
14526;SDS011;7350;51.208;4.238;2023-03-17T02:12:25;1.10;;;1.00;;
14526;SDS011;7350;51.208;4.238;2023-03-17T02:14:54;1.30;;;1.20;;
14526;SDS011;7350;51.208;4.238;2023-03-17T02:17:24;1.15;;;1.00;;
14526;SDS011;7350;51.208;4.238;2023-03-17T02:19:53;1.25;;;1.10;;
14526;SDS011;7350;51.208;4.238;2023-03-17T02:22:22;1.90;;;1.02;;
14526;SDS011;7350;51.208;4.238;2023-03-17T02:24:49;1.02;;;1.00;;
14526;SDS011;7350;51.208;4.238;2023-03-17T02:27:20;1.30;;;1.20;;
14526;SDS011;7350;51.208;4.238;2023-03-17T02:29:51;1.95;;;1.40;;
14526;SDS011;7350;51.208;4.238;2023-03-17T02:32:18;1.33;;;1.17;;
14526;SDS011;7350;51.208;4.238;2023-03-17T02:34:46;1.20;;;1.10;;
14526;SDS011;7350;51.208;4.238;2023-03-17T02:37:13;1.15;;;1.05;;
14526;SDS011;7350;51.208;4.238;2023-03-17T02:39:42;1.67;;;1.20;;
14526;SDS011;7350;51.208;4.238;2023-03-17T02:42:10;1.23;;;1.13;;
14526;SDS011;7350;51.208;4.238;2023-03-17T02:44:38;1.17;;;1.08;;
14526;SDS011;7350;51.208;4.238;2023-03-17T02:47:05;1.42;;;1.20;;
14526;SDS011;7350;51.208;4.238;2023-03-17T02:49:33;1.95;;;1.17;;
14526;SDS011;7350;51.208;4.238;2023-03-17T02:52:01;2.20;;;1.02;;
14526;SDS011;7350;51.208;4.238;2023-03-17T02:54:28;1.45;;;1.23;;
14526;SDS011;7350;51.208;4.238;2023-03-17T02:56:57;1.33;;;1.10;;
14526;SDS011;7350;51.208;4.238;2023-03-17T02:59:24;1.83;;;1.20;;
14526;SDS011;7350;51.208;4.238;2023-03-17T03:01:53;1.27;;;1.00;;
14526;SDS011;7350;51.208;4.238;2023-03-17T03:04:20;1.17;;;1.08;;
14526;SDS011;7350;51.208;4.238;2023-03-17T03:06:48;1.58;;;1.30;;
14526;SDS011;7350;51.208;4.238;2023-03-17T03:09:15;1.20;;;1.10;;
14526;SDS011;7350;51.208;4.238;2023-03-17T03:11:43;1.20;;;1.10;;
14526;SDS011;7350;51.208;4.238;2023-03-17T03:14:12;1.35;;;1.10;;
14526;SDS011;7350;51.208;4.238;2023-03-17T03:16:39;1.17;;;1.08;;
14526;SDS011;7350;51.208;4.238;2023-03-17T03:19:07;1.10;;;1.00;;
14526;SDS011;7350;51.208;4.238;2023-03-17T03:21:34;1.92;;;1.10;;
14526;SDS011;7350;51.208;4.238;2023-03-17T03:24:01;1.23;;;1.13;;
14526;SDS011;7350;51.208;4.238;2023-03-17T03:26:29;1.58;;;1.20;;
14526;SDS011;7350;51.208;4.238;2023-03-17T03:28:56;1.63;;;1.15;;
14526;SDS011;7350;51.208;4.238;2023-03-17T03:31:25;1.50;;;1.02;;
14526;SDS011;7350;51.208;4.238;2023-03-17T03:33:52;1.83;;;1.23;;
14526;SDS011;7350;51.208;4.238;2023-03-17T03:36:19;1.13;;;1.02;;
14526;SDS011;7350;51.208;4.238;2023-03-17T03:38:47;1.98;;;1.33;;
14526;SDS011;7350;51.208;4.238;2023-03-17T03:41:15;3.13;;;1.25;;
14526;SDS011;7350;51.208;4.238;2023-03-17T03:43:42;1.23;;;1.13;;
14526;SDS011;7350;51.208;4.238;2023-03-17T03:46:09;1.23;;;0.98;;
14526;SDS011;7350;51.208;4.238;2023-03-17T03:48:37;1.25;;;1.00;;
14526;SDS011;7350;51.208;4.238;2023-03-17T03:51:04;1.20;;;1.10;;
14526;SDS011;7350;51.208;4.238;2023-03-17T03:53:32;1.35;;;1.05;;
14526;SDS011;7350;51.208;4.238;2023-03-17T03:55:58;1.70;;;1.17;;
14526;SDS011;7350;51.208;4.238;2023-03-17T03:58:26;1.10;;;1.00;;
14526;SDS011;7350;51.208;4.238;2023-03-17T04:00:52;1.10;;;1.00;;
14526;SDS011;7350;51.208;4.238;2023-03-17T04:03:19;1.25;;;1.13;;
14526;SDS011;7350;51.208;4.238;2023-03-17T04:05:48;1.02;;;0.98;;
14526;SDS011;7350;51.208;4.238;2023-03-17T04:08:15;1.38;;;0.93;;
14526;SDS011;7350;51.208;4.238;2023-03-17T04:10:42;1.52;;;1.25;;
14526;SDS011;7350;51.208;4.238;2023-03-17T04:13:09;1.15;;;1.05;;
14526;SDS011;7350;51.208;4.238;2023-03-17T04:15:36;1.30;;;1.20;;
14526;SDS011;7350;51.208;4.238;2023-03-17T04:18:03;2.13;;;0.90;;
14526;SDS011;7350;51.208;4.238;2023-03-17T04:20:30;0.90;;;0.90;;
14526;SDS011;7350;51.208;4.238;2023-03-17T04:22:59;1.17;;;1.08;;
14526;SDS011;7350;51.208;4.238;2023-03-17T04:25:26;0.90;;;0.90;;
14526;SDS011;7350;51.208;4.238;2023-03-17T04:27:53;1.67;;;1.10;;
14526;SDS011;7350;51.208;4.238;2023-03-17T04:30:20;1.30;;;1.20;;
14526;SDS011;7350;51.208;4.238;2023-03-17T04:32:47;1.20;;;1.10;;
14526;SDS011;7350;51.208;4.238;2023-03-17T04:35:14;0.95;;;0.95;;
14526;SDS011;7350;51.208;4.238;2023-03-17T04:37:42;1.30;;;1.20;;
14526;SDS011;7350;51.208;4.238;2023-03-17T04:40:11;0.90;;;0.90;;
14526;SDS011;7350;51.208;4.238;2023-03-17T04:42:40;1.95;;;1.40;;
14526;SDS011;7350;51.208;4.238;2023-03-17T04:45:08;1.27;;;1.00;;
14526;SDS011;7350;51.208;4.238;2023-03-17T04:47:38;1.65;;;1.38;;
14526;SDS011;7350;51.208;4.238;2023-03-17T04:50:05;2.58;;;2.38;;
14526;SDS011;7350;51.208;4.238;2023-03-17T04:52:33;2.70;;;2.05;;
14526;SDS011;7350;51.208;4.238;2023-03-17T04:55:01;2.63;;;1.98;;
14526;SDS011;7350;51.208;4.238;2023-03-17T04:57:29;2.03;;;1.83;;
14526;SDS011;7350;51.208;4.238;2023-03-17T04:59:56;2.08;;;1.75;;
14526;SDS011;7350;51.208;4.238;2023-03-17T05:02:23;2.50;;;1.40;;
14526;SDS011;7350;51.208;4.238;2023-03-17T05:04:50;1.98;;;1.58;;
14526;SDS011;7350;51.208;4.238;2023-03-17T05:07:17;1.52;;;1.42;;
14526;SDS011;7350;51.208;4.238;2023-03-17T05:09:44;1.52;;;1.42;;
14526;SDS011;7350;51.208;4.238;2023-03-17T05:12:11;1.95;;;1.60;;
14526;SDS011;7350;51.208;4.238;2023-03-17T05:14:40;1.88;;;1.67;;
14526;SDS011;7350;51.208;4.238;2023-03-17T05:17:07;4.97;;;1.70;;
14526;SDS011;7350;51.208;4.238;2023-03-17T05:19:35;3.80;;;1.90;;
14526;SDS011;7350;51.208;4.238;2023-03-17T05:22:02;4.53;;;1.55;;
14526;SDS011;7350;51.208;4.238;2023-03-17T05:24:29;3.72;;;1.60;;
14526;SDS011;7350;51.208;4.238;2023-03-17T05:26:56;3.35;;;1.48;;
14526;SDS011;7350;51.208;4.238;2023-03-17T05:29:23;3.67;;;1.45;;
14526;SDS011;7350;51.208;4.238;2023-03-17T05:31:51;3.20;;;1.30;;
14526;SDS011;7350;51.208;4.238;2023-03-17T05:34:18;4.25;;;1.55;;
14526;SDS011;7350;51.208;4.238;2023-03-17T05:36:45;1.60;;;1.05;;
14526;SDS011;7350;51.208;4.238;2023-03-17T05:39:12;2.60;;;1.30;;
14526;SDS011;7350;51.208;4.238;2023-03-17T05:41:39;1.98;;;1.17;;
14526;SDS011;7350;51.208;4.238;2023-03-17T05:44:06;3.33;;;1.50;;
14526;SDS011;7350;51.208;4.238;2023-03-17T05:46:34;1.88;;;1.35;;
14526;SDS011;7350;51.208;4.238;2023-03-17T05:49:02;2.97;;;1.30;;
14526;SDS011;7350;51.208;4.238;2023-03-17T05:51:29;4.13;;;1.23;;
14526;SDS011;7350;51.208;4.238;2023-03-17T05:53:56;3.65;;;1.48;;
14526;SDS011;7350;51.208;4.238;2023-03-17T05:56:23;4.60;;;1.65;;
14526;SDS011;7350;51.208;4.238;2023-03-17T05:58:57;4.88;;;1.48;;
14526;SDS011;7350;51.208;4.238;2023-03-17T06:01:24;2.88;;;1.50;;
14526;SDS011;7350;51.208;4.238;2023-03-17T06:03:51;2.78;;;1.13;;
14526;SDS011;7350;51.208;4.238;2023-03-17T06:06:20;3.67;;;1.30;;
14526;SDS011;7350;51.208;4.238;2023-03-17T06:08:47;3.85;;;1.33;;
14526;SDS011;7350;51.208;4.238;2023-03-17T06:11:14;1.90;;;1.27;;
14526;SDS011;7350;51.208;4.238;2023-03-17T06:13:43;1.85;;;1.13;;
14526;SDS011;7350;51.208;4.238;2023-03-17T06:16:11;3.72;;;1.52;;
14526;SDS011;7350;51.208;4.238;2023-03-17T06:18:38;1.92;;;1.33;;
14526;SDS011;7350;51.208;4.238;2023-03-17T06:21:05;2.78;;;1.20;;
14526;SDS011;7350;51.208;4.238;2023-03-17T06:23:33;2.08;;;1.13;;
14526;SDS011;7350;51.208;4.238;2023-03-17T06:26:00;3.03;;;1.23;;
14526;SDS011;7350;51.208;4.238;2023-03-17T06:28:27;2.72;;;1.27;;
14526;SDS011;7350;51.208;4.238;2023-03-17T06:30:54;1.20;;;1.10;;
14526;SDS011;7350;51.208;4.238;2023-03-17T06:33:22;1.63;;;1.10;;
14526;SDS011;7350;51.208;4.238;2023-03-17T06:35:49;1.23;;;1.08;;
14526;SDS011;7350;51.208;4.238;2023-03-17T06:38:16;1.90;;;1.20;;
14526;SDS011;7350;51.208;4.238;2023-03-17T06:40:46;2.25;;;1.45;;
14526;SDS011;7350;51.208;4.238;2023-03-17T06:43:13;2.67;;;1.42;;
14526;SDS011;7350;51.208;4.238;2023-03-17T06:45:41;2.53;;;1.30;;
14526;SDS011;7350;51.208;4.238;2023-03-17T06:48:08;5.25;;;1.30;;
14526;SDS011;7350;51.208;4.238;2023-03-17T06:50:35;2.17;;;1.20;;
14526;SDS011;7350;51.208;4.238;2023-03-17T06:53:02;3.03;;;1.40;;
14526;SDS011;7350;51.208;4.238;2023-03-17T06:55:30;2.33;;;1.20;;
14526;SDS011;7350;51.208;4.238;2023-03-17T06:57:59;2.97;;;1.33;;
14526;SDS011;7350;51.208;4.238;2023-03-17T07:00:27;5.40;;;1.25;;
14526;SDS011;7350;51.208;4.238;2023-03-17T07:02:54;5.65;;;1.40;;
14526;SDS011;7350;51.208;4.238;2023-03-17T07:05:21;3.13;;;1.33;;
14526;SDS011;7350;51.208;4.238;2023-03-17T07:07:48;4.13;;;1.55;;
14526;SDS011;7350;51.208;4.238;2023-03-17T07:10:16;2.25;;;1.38;;
14526;SDS011;7350;51.208;4.238;2023-03-17T07:12:43;2.65;;;1.58;;
14526;SDS011;7350;51.208;4.238;2023-03-17T07:15:13;2.35;;;1.35;;
14526;SDS011;7350;51.208;4.238;2023-03-17T07:17:41;1.50;;;1.30;;
14526;SDS011;7350;51.208;4.238;2023-03-17T07:20:08;3.42;;;1.35;;
14526;SDS011;7350;51.208;4.238;2023-03-17T07:22:38;2.90;;;1.40;;
14526;SDS011;7350;51.208;4.238;2023-03-17T07:25:05;2.67;;;1.35;;
14526;SDS011;7350;51.208;4.238;2023-03-17T07:27:33;3.25;;;1.15;;
14526;SDS011;7350;51.208;4.238;2023-03-17T07:30:01;4.63;;;2.35;;
14526;SDS011;7350;51.208;4.238;2023-03-17T07:32:30;3.50;;;1.48;;
14526;SDS011;7350;51.208;4.238;2023-03-17T07:34:57;2.55;;;1.40;;
14526;SDS011;7350;51.208;4.238;2023-03-17T07:37:24;2.10;;;1.35;;
14526;SDS011;7350;51.208;4.238;2023-03-17T07:39:51;3.17;;;1.48;;
14526;SDS011;7350;51.208;4.238;2023-03-17T07:42:18;4.15;;;1.40;;
14526;SDS011;7350;51.208;4.238;2023-03-17T07:44:45;2.20;;;1.33;;
14526;SDS011;7350;51.208;4.238;2023-03-17T07:47:12;3.47;;;1.23;;
14526;SDS011;7350;51.208;4.238;2023-03-17T07:49:41;2.20;;;1.52;;
14526;SDS011;7350;51.208;4.238;2023-03-17T07:52:08;3.92;;;1.40;;
14526;SDS011;7350;51.208;4.238;2023-03-17T07:54:36;4.28;;;1.50;;
14526;SDS011;7350;51.208;4.238;2023-03-17T07:57:05;2.50;;;1.30;;
14526;SDS011;7350;51.208;4.238;2023-03-17T07:59:32;5.55;;;1.40;;
14526;SDS011;7350;51.208;4.238;2023-03-17T08:01:59;2.17;;;1.63;;
14526;SDS011;7350;51.208;4.238;2023-03-17T08:04:26;3.70;;;1.30;;
14526;SDS011;7350;51.208;4.238;2023-03-17T08:06:55;4.18;;;1.55;;
14526;SDS011;7350;51.208;4.238;2023-03-17T08:09:22;4.85;;;1.75;;
14526;SDS011;7350;51.208;4.238;2023-03-17T08:11:51;3.05;;;1.38;;
14526;SDS011;7350;51.208;4.238;2023-03-17T08:14:18;3.72;;;1.35;;
14526;SDS011;7350;51.208;4.238;2023-03-17T08:16:45;3.70;;;1.35;;
14526;SDS011;7350;51.208;4.238;2023-03-17T08:19:12;2.72;;;1.35;;
14526;SDS011;7350;51.208;4.238;2023-03-17T08:21:39;2.30;;;1.50;;
14526;SDS011;7350;51.208;4.238;2023-03-17T08:24:07;2.58;;;1.25;;
14526;SDS011;7350;51.208;4.238;2023-03-17T08:26:35;2.38;;;1.40;;
14526;SDS011;7350;51.208;4.238;2023-03-17T08:29:02;3.22;;;1.50;;
14526;SDS011;7350;51.208;4.238;2023-03-17T08:31:30;3.53;;;1.50;;
14526;SDS011;7350;51.208;4.238;2023-03-17T08:33:58;2.10;;;1.30;;
14526;SDS011;7350;51.208;4.238;2023-03-17T08:36:27;2.38;;;1.45;;
14526;SDS011;7350;51.208;4.238;2023-03-17T08:38:54;2.20;;;1.38;;
14526;SDS011;7350;51.208;4.238;2023-03-17T08:41:23;1.67;;;1.30;;
14526;SDS011;7350;51.208;4.238;2023-03-17T08:43:52;1.88;;;1.25;;
14526;SDS011;7350;51.208;4.238;2023-03-17T08:46:21;3.22;;;1.30;;
14526;SDS011;7350;51.208;4.238;2023-03-17T08:48:50;1.70;;;1.40;;
14526;SDS011;7350;51.208;4.238;2023-03-17T08:51:18;2.05;;;1.58;;
14526;SDS011;7350;51.208;4.238;2023-03-17T08:53:46;2.33;;;1.52;;
14526;SDS011;7350;51.208;4.238;2023-03-17T08:56:14;2.72;;;1.38;;
14526;SDS011;7350;51.208;4.238;2023-03-17T08:58:43;3.17;;;1.95;;
14526;SDS011;7350;51.208;4.238;2023-03-17T09:01:11;3.20;;;1.58;;
14526;SDS011;7350;51.208;4.238;2023-03-17T09:03:39;4.25;;;1.40;;
14526;SDS011;7350;51.208;4.238;2023-03-17T09:06:07;2.45;;;1.80;;
14526;SDS011;7350;51.208;4.238;2023-03-17T09:08:36;3.40;;;1.60;;
14526;SDS011;7350;51.208;4.238;2023-03-17T09:11:04;3.85;;;1.60;;
14526;SDS011;7350;51.208;4.238;2023-03-17T09:13:31;2.10;;;1.73;;
14526;SDS011;7350;51.208;4.238;2023-03-17T09:15:59;3.67;;;1.83;;
14526;SDS011;7350;51.208;4.238;2023-03-17T09:18:26;4.13;;;1.75;;
14526;SDS011;7350;51.208;4.238;2023-03-17T09:20:55;2.65;;;1.40;;
14526;SDS011;7350;51.208;4.238;2023-03-17T09:23:22;3.10;;;1.73;;
14526;SDS011;7350;51.208;4.238;2023-03-17T09:25:50;4.50;;;1.80;;
14526;SDS011;7350;51.208;4.238;2023-03-17T09:28:17;2.78;;;1.38;;
14526;SDS011;7350;51.208;4.238;2023-03-17T09:30:44;2.85;;;1.90;;
14526;SDS011;7350;51.208;4.238;2023-03-17T09:33:12;2.88;;;1.70;;
14526;SDS011;7350;51.208;4.238;2023-03-17T09:35:40;2.60;;;1.77;;
14526;SDS011;7350;51.208;4.238;2023-03-17T09:38:07;2.63;;;1.40;;
14526;SDS011;7350;51.208;4.238;2023-03-17T09:40:37;2.17;;;1.77;;
14526;SDS011;7350;51.208;4.238;2023-03-17T09:43:11;1.48;;;1.25;;
14526;SDS011;7350;51.208;4.238;2023-03-17T09:45:47;2.28;;;1.58;;
14526;SDS011;7350;51.208;4.238;2023-03-17T09:48:29;3.28;;;1.48;;
14526;SDS011;7350;51.208;4.238;2023-03-17T09:51:06;2.58;;;1.50;;
14526;SDS011;7350;51.208;4.238;2023-03-17T09:53:35;1.95;;;1.42;;
14526;SDS011;7350;51.208;4.238;2023-03-17T09:56:10;2.83;;;1.60;;
14526;SDS011;7350;51.208;4.238;2023-03-17T09:58:40;3.15;;;1.80;;
14526;SDS011;7350;51.208;4.238;2023-03-17T10:01:12;2.78;;;1.70;;
14526;SDS011;7350;51.208;4.238;2023-03-17T10:03:40;3.53;;;1.92;;
14526;SDS011;7350;51.208;4.238;2023-03-17T10:06:14;3.47;;;1.75;;
14526;SDS011;7350;51.208;4.238;2023-03-17T10:08:59;3.20;;;1.80;;
14526;SDS011;7350;51.208;4.238;2023-03-17T10:11:38;2.95;;;1.83;;
14526;SDS011;7350;51.208;4.238;2023-03-17T10:14:10;2.58;;;1.60;;
14526;SDS011;7350;51.208;4.238;2023-03-17T10:16:52;3.75;;;1.80;;
14526;SDS011;7350;51.208;4.238;2023-03-17T10:19:27;3.53;;;2.10;;
14526;SDS011;7350;51.208;4.238;2023-03-17T10:21:57;3.00;;;1.67;;
14526;SDS011;7350;51.208;4.238;2023-03-17T10:24:28;3.10;;;2.05;;
14526;SDS011;7350;51.208;4.238;2023-03-17T10:26:58;4.25;;;2.42;;
14526;SDS011;7350;51.208;4.238;2023-03-17T10:29:30;3.25;;;2.00;;
14526;SDS011;7350;51.208;4.238;2023-03-17T10:31:57;2.70;;;1.92;;
14526;SDS011;7350;51.208;4.238;2023-03-17T10:34:27;3.30;;;2.38;;
14526;SDS011;7350;51.208;4.238;2023-03-17T10:36:58;4.40;;;2.47;;
14526;SDS011;7350;51.208;4.238;2023-03-17T10:39:27;3.33;;;2.30;;
14526;SDS011;7350;51.208;4.238;2023-03-17T10:41:55;3.58;;;2.33;;
14526;SDS011;7350;51.208;4.238;2023-03-17T10:44:28;4.97;;;2.72;;
14526;SDS011;7350;51.208;4.238;2023-03-17T10:47:05;4.70;;;2.28;;
14526;SDS011;7350;51.208;4.238;2023-03-17T10:49:45;4.35;;;2.33;;
14526;SDS011;7350;51.208;4.238;2023-03-17T10:52:15;3.35;;;2.03;;
14526;SDS011;7350;51.208;4.238;2023-03-17T10:54:46;5.38;;;2.30;;
14526;SDS011;7350;51.208;4.238;2023-03-17T10:57:13;4.32;;;2.55;;
14526;SDS011;7350;51.208;4.238;2023-03-17T10:59:41;5.03;;;2.22;;
14526;SDS011;7350;51.208;4.238;2023-03-17T11:02:16;2.65;;;2.28;;
14526;SDS011;7350;51.208;4.238;2023-03-17T11:04:47;3.72;;;2.30;;
14526;SDS011;7350;51.208;4.238;2023-03-17T11:07:15;4.45;;;2.40;;
14526;SDS011;7350;51.208;4.238;2023-03-17T11:09:47;4.35;;;2.40;;
14526;SDS011;7350;51.208;4.238;2023-03-17T11:12:21;3.22;;;2.50;;
14526;SDS011;7350;51.208;4.238;2023-03-17T11:14:53;4.05;;;2.40;;
14526;SDS011;7350;51.208;4.238;2023-03-17T11:17:28;3.63;;;2.65;;
14526;SDS011;7350;51.208;4.238;2023-03-17T11:20:12;3.85;;;2.28;;
14526;SDS011;7350;51.208;4.238;2023-03-17T11:22:53;3.63;;;2.78;;
14526;SDS011;7350;51.208;4.238;2023-03-17T11:25:29;5.00;;;2.70;;
14526;SDS011;7350;51.208;4.238;2023-03-17T11:27:59;4.50;;;2.53;;
14526;SDS011;7350;51.208;4.238;2023-03-17T11:30:40;4.55;;;2.33;;
14526;SDS011;7350;51.208;4.238;2023-03-17T11:33:14;4.18;;;2.70;;
14526;SDS011;7350;51.208;4.238;2023-03-17T11:35:52;5.00;;;2.72;;
14526;SDS011;7350;51.208;4.238;2023-03-17T11:38:23;6.00;;;2.70;;
14526;SDS011;7350;51.208;4.238;2023-03-17T11:44:01;2.88;;;2.38;;
14526;SDS011;7350;51.208;4.238;2023-03-17T11:46:40;2.58;;;2.10;;
14526;SDS011;7350;51.208;4.238;2023-03-17T11:49:14;3.45;;;2.30;;
14526;SDS011;7350;51.208;4.238;2023-03-17T11:51:49;4.15;;;2.35;;
14526;SDS011;7350;51.208;4.238;2023-03-17T11:54:25;5.18;;;2.35;;
14526;SDS011;7350;51.208;4.238;2023-03-17T11:56:59;4.80;;;2.47;;
14526;SDS011;7350;51.208;4.238;2023-03-17T11:59:29;3.90;;;2.45;;
14526;SDS011;7350;51.208;4.238;2023-03-17T12:02:02;4.63;;;2.40;;
14526;SDS011;7350;51.208;4.238;2023-03-17T12:04:46;5.18;;;2.60;;
14526;SDS011;7350;51.208;4.238;2023-03-17T12:07:20;4.32;;;2.30;;
14526;SDS011;7350;51.208;4.238;2023-03-17T12:09:53;4.05;;;2.35;;
14526;SDS011;7350;51.208;4.238;2023-03-17T12:12:29;3.75;;;2.50;;
14526;SDS011;7350;51.208;4.238;2023-03-17T12:15:01;3.50;;;2.40;;
14526;SDS011;7350;51.208;4.238;2023-03-17T12:17:32;5.20;;;2.50;;
14526;SDS011;7350;51.208;4.238;2023-03-17T12:20:03;3.55;;;2.22;;
14526;SDS011;7350;51.208;4.238;2023-03-17T12:22:38;3.50;;;2.10;;
14526;SDS011;7350;51.208;4.238;2023-03-17T12:25:12;3.55;;;2.35;;
14526;SDS011;7350;51.208;4.238;2023-03-17T12:27:45;3.78;;;2.13;;
14526;SDS011;7350;51.208;4.238;2023-03-17T12:30:22;3.53;;;2.47;;
14526;SDS011;7350;51.208;4.238;2023-03-17T12:32:55;3.72;;;2.15;;
14526;SDS011;7350;51.208;4.238;2023-03-17T12:35:30;6.18;;;2.60;;
14526;SDS011;7350;51.208;4.238;2023-03-17T12:38:01;3.40;;;2.17;;
14526;SDS011;7350;51.208;4.238;2023-03-17T12:40:35;3.95;;;2.20;;
14526;SDS011;7350;51.208;4.238;2023-03-17T12:43:33;4.13;;;2.10;;
14526;SDS011;7350;51.208;4.238;2023-03-17T12:46:09;4.00;;;2.20;;
14526;SDS011;7350;51.208;4.238;2023-03-17T12:49:01;3.25;;;2.05;;
14526;SDS011;7350;51.208;4.238;2023-03-17T12:52:00;2.22;;;1.83;;
14526;SDS011;7350;51.208;4.238;2023-03-17T12:54:42;3.85;;;2.10;;
14526;SDS011;7350;51.208;4.238;2023-03-17T12:57:12;4.85;;;2.22;;
14526;SDS011;7350;51.208;4.238;2023-03-17T12:59:43;4.00;;;2.40;;
14526;SDS011;7350;51.208;4.238;2023-03-17T13:02:13;2.78;;;1.80;;
14526;SDS011;7350;51.208;4.238;2023-03-17T13:04:47;2.70;;;1.90;;
14526;SDS011;7350;51.208;4.238;2023-03-17T13:07:22;3.00;;;2.00;;
14526;SDS011;7350;51.208;4.238;2023-03-17T13:21:14;3.88;;;2.00;;
14526;SDS011;7350;51.208;4.238;2023-03-17T13:23:44;7.20;;;2.30;;
14526;SDS011;7350;51.208;4.238;2023-03-17T13:26:15;5.00;;;2.47;;
14526;SDS011;7350;51.208;4.238;2023-03-17T13:28:45;8.57;;;2.17;;
14526;SDS011;7350;51.208;4.238;2023-03-17T13:31:27;5.22;;;2.40;;
14526;SDS011;7350;51.208;4.238;2023-03-17T13:36:47;5.15;;;2.08;;
14526;SDS011;7350;51.208;4.238;2023-03-17T13:39:38;6.32;;;2.28;;
14526;SDS011;7350;51.208;4.238;2023-03-17T13:42:24;4.45;;;2.10;;
14526;SDS011;7350;51.208;4.238;2023-03-17T13:45:04;4.88;;;2.15;;
14526;SDS011;7350;51.208;4.238;2023-03-17T13:47:40;4.88;;;2.15;;
14526;SDS011;7350;51.208;4.238;2023-03-17T13:50:11;7.13;;;2.38;;
14526;SDS011;7350;51.208;4.238;2023-03-17T13:52:41;5.70;;;2.22;;
14526;SDS011;7350;51.208;4.238;2023-03-17T13:55:30;5.47;;;2.00;;
14526;SDS011;7350;51.208;4.238;2023-03-17T13:58:20;4.40;;;1.80;;
14526;SDS011;7350;51.208;4.238;2023-03-17T14:01:02;5.38;;;2.28;;
14526;SDS011;7350;51.208;4.238;2023-03-17T14:03:34;3.08;;;1.70;;
14526;SDS011;7350;51.208;4.238;2023-03-17T14:06:06;3.97;;;2.10;;
14526;SDS011;7350;51.208;4.238;2023-03-17T14:08:36;3.70;;;2.33;;
14526;SDS011;7350;51.208;4.238;2023-03-17T14:11:14;8.02;;;2.25;;
14526;SDS011;7350;51.208;4.238;2023-03-17T14:13:51;5.13;;;2.22;;
14526;SDS011;7350;51.208;4.238;2023-03-17T14:16:25;4.20;;;1.92;;
14526;SDS011;7350;51.208;4.238;2023-03-17T14:18:56;5.10;;;2.13;;
14526;SDS011;7350;51.208;4.238;2023-03-17T14:21:29;4.78;;;1.90;;
14526;SDS011;7350;51.208;4.238;2023-03-17T14:23:57;5.63;;;2.20;;
14526;SDS011;7350;51.208;4.238;2023-03-17T14:26:26;3.90;;;1.88;;
14526;SDS011;7350;51.208;4.238;2023-03-17T14:28:59;3.42;;;2.17;;
14526;SDS011;7350;51.208;4.238;2023-03-17T14:31:27;3.25;;;2.20;;
14526;SDS011;7350;51.208;4.238;2023-03-17T14:33:55;4.63;;;2.20;;
14526;SDS011;7350;51.208;4.238;2023-03-17T14:36:23;7.45;;;2.45;;
14526;SDS011;7350;51.208;4.238;2023-03-17T14:38:52;5.80;;;2.50;;
14526;SDS011;7350;51.208;4.238;2023-03-17T14:41:21;3.90;;;2.00;;
14526;SDS011;7350;51.208;4.238;2023-03-17T14:43:50;4.00;;;1.98;;
14526;SDS011;7350;51.208;4.238;2023-03-17T14:46:21;3.47;;;1.90;;
14526;SDS011;7350;51.208;4.238;2023-03-17T14:48:54;4.45;;;1.88;;
14526;SDS011;7350;51.208;4.238;2023-03-17T14:51:25;4.47;;;2.15;;
14526;SDS011;7350;51.208;4.238;2023-03-17T14:53:55;4.63;;;2.28;;
14526;SDS011;7350;51.208;4.238;2023-03-17T14:56:28;4.32;;;2.17;;
14526;SDS011;7350;51.208;4.238;2023-03-17T14:59:03;4.97;;;2.35;;
14526;SDS011;7350;51.208;4.238;2023-03-17T15:01:35;4.85;;;2.42;;
14526;SDS011;7350;51.208;4.238;2023-03-17T15:04:04;3.70;;;2.38;;
14526;SDS011;7350;51.208;4.238;2023-03-17T15:06:44;7.97;;;2.83;;
14526;SDS011;7350;51.208;4.238;2023-03-17T15:09:16;7.57;;;2.80;;
14526;SDS011;7350;51.208;4.238;2023-03-17T15:11:44;4.50;;;2.83;;
14526;SDS011;7350;51.208;4.238;2023-03-17T15:14:14;4.57;;;2.40;;
14526;SDS011;7350;51.208;4.238;2023-03-17T15:16:45;7.10;;;2.80;;
14526;SDS011;7350;51.208;4.238;2023-03-17T15:19:19;5.18;;;2.70;;
14526;SDS011;7350;51.208;4.238;2023-03-17T15:21:48;5.50;;;3.10;;
14526;SDS011;7350;51.208;4.238;2023-03-17T15:24:21;5.00;;;2.58;;
14526;SDS011;7350;51.208;4.238;2023-03-17T15:27:00;5.35;;;2.50;;
14526;SDS011;7350;51.208;4.238;2023-03-17T15:29:29;5.50;;;2.40;;
14526;SDS011;7350;51.208;4.238;2023-03-17T15:32:01;6.18;;;2.47;;
14526;SDS011;7350;51.208;4.238;2023-03-17T15:34:35;4.47;;;2.50;;